Time;durP1;ratioP1;P1;durP2;ratioP2;P2;SDS_P1;SDS_P2;PMS_P1;PMS_P2;Temp;Humidity;BMP_temperature;BMP_pressure;BME280_temperature;BME280_humidity;BME280_pressure;Samples;Min_cycle;Max_cycle;Signal;HPM_P1;HPM_P2
2024/01/31 00:00:38;;;;;;;3.00;1.67;;;;;;;;;;4975002;28;20213;-85
2024/01/31 00:03:09;;;;;;;1.00;1.00;;;;;;;;;;4975822;28;20211;-85
2024/01/31 00:05:37;;;;;;;0.70;0.70;;;;;;;;;;4958179;28;20232;-85
2024/01/31 00:08:06;;;;;;;1.00;1.00;;;;;;;;;;4957545;28;20224;-85
2024/01/31 00:10:35;;;;;;;3.80;1.53;;;;;;;;;;4957552;28;20232;-85
2024/01/31 00:13:03;;;;;;;3.57;1.17;;;;;;;;;;4975559;28;20261;-85
2024/01/31 00:15:32;;;;;;;1.07;0.80;;;;;;;;;;4958019;28;20256;-85
2024/01/31 00:18:00;;;;;;;3.00;1.60;;;;;;;;;;4974860;28;20198;-85
2024/01/31 00:20:31;;;;;;;1.00;1.00;;;;;;;;;;4974528;28;20201;-85
2024/01/31 00:22:59;;;;;;;0.93;0.90;;;;;;;;;;4957950;28;20236;-85
2024/01/31 00:25:28;;;;;;;4.10;1.30;;;;;;;;;;4958071;28;20219;-85
2024/01/31 00:27:56;;;;;;;1.70;1.00;;;;;;;;;;4975023;28;20197;-85
2024/01/31 00:30:25;;;;;;;0.80;0.80;;;;;;;;;;4974231;28;20249;-85
2024/01/31 00:32:53;;;;;;;0.70;0.70;;;;;;;;;;4975252;28;20232;-85
2024/01/31 00:35:22;;;;;;;0.70;0.70;;;;;;;;;;4958295;28;20220;-86
2024/01/31 00:37:53;;;;;;;0.80;0.80;;;;;;;;;;4957781;28;20201;-84
2024/01/31 00:40:21;;;;;;;0.80;0.80;;;;;;;;;;4956961;28;20217;-85
2024/01/31 00:42:50;;;;;;;0.80;0.80;;;;;;;;;;4974284;28;20205;-85
2024/01/31 00:45:18;;;;;;;1.03;1.03;;;;;;;;;;4974549;28;20197;-85
2024/01/31 00:47:47;;;;;;;0.70;0.70;;;;;;;;;;4957049;28;20244;-85
2024/01/31 00:50:18;;;;;;;0.80;0.80;;;;;;;;;;4973733;28;20216;-85
2024/01/31 00:52:51;;;;;;;2.03;0.93;;;;;;;;;;4972849;28;20201;-85
2024/01/31 00:55:20;;;;;;;0.73;0.73;;;;;;;;;;4957535;28;20197;-85
2024/01/31 00:57:48;;;;;;;2.20;2.10;;;;;;;;;;4957104;28;20255;-85
2024/01/31 01:00:23;;;;;;;0.70;0.70;;;;;;;;;;4956889;28;20204;-85
2024/01/31 01:02:51;;;;;;;0.70;0.70;;;;;;;;;;4973633;28;20207;-85
2024/01/31 01:05:20;;;;;;;0.60;0.60;;;;;;;;;;4974868;28;20204;-86
2024/01/31 01:07:50;;;;;;;0.60;0.60;;;;;;;;;;4957891;28;20204;-87
2024/01/31 01:10:20;;;;;;;0.90;0.90;;;;;;;;;;4974323;28;20206;-86
2024/01/31 01:12:49;;;;;;;0.60;0.60;;;;;;;;;;4957302;28;20210;-86
2024/01/31 01:15:19;;;;;;;0.80;0.80;;;;;;;;;;4957833;28;20208;-87
2024/01/31 01:17:47;;;;;;;0.60;0.60;;;;;;;;;;4957467;28;20209;-86
2024/01/31 01:20:16;;;;;;;0.60;0.60;;;;;;;;;;4974006;28;20201;-87
2024/01/31 01:22:45;;;;;;;0.70;0.70;;;;;;;;;;4974079;28;20202;-86
2024/01/31 01:25:14;;;;;;;0.60;0.60;;;;;;;;;;4974545;28;20285;-87
2024/01/31 01:27:50;;;;;;;0.63;0.63;;;;;;;;;;4957310;28;20202;-87
2024/01/31 01:30:20;;;;;;;0.70;0.70;;;;;;;;;;4957895;28;20357;-87
2024/01/31 01:32:48;;;;;;;0.60;0.60;;;;;;;;;;4955874;28;20220;-86
2024/01/31 01:35:17;;;;;;;0.70;0.70;;;;;;;;;;4956447;28;20256;-87
2024/01/31 01:37:45;;;;;;;1.30;0.90;;;;;;;;;;4957284;28;20206;-87
2024/01/31 01:40:15;;;;;;;0.63;0.63;;;;;;;;;;4974428;28;20194;-86
2024/01/31 01:42:45;;;;;;;1.20;1.20;;;;;;;;;;4973968;28;20198;-86
2024/01/31 01:45:14;;;;;;;2.23;1.27;;;;;;;;;;4956855;28;20197;-87
2024/01/31 01:47:50;;;;;;;4.03;1.40;;;;;;;;;;4957082;28;20209;-86
2024/01/31 01:50:19;;;;;;;1.97;1.77;;;;;;;;;;4973621;28;20262;-86
2024/01/31 01:52:48;;;;;;;5.20;1.47;;;;;;;;;;4956358;28;20217;-86
2024/01/31 01:55:17;;;;;;;1.27;1.17;;;;;;;;;;4955936;28;20206;-86
2024/01/31 01:57:47;;;;;;;1.50;1.40;;;;;;;;;;4956421;28;20211;-87
2024/01/31 02:00:16;;;;;;;1.33;1.33;;;;;;;;;;4956694;28;20212;-87
2024/01/31 02:02:45;;;;;;;0.70;0.70;;;;;;;;;;4973158;28;20197;-87
2024/01/31 02:05:14;;;;;;;0.83;0.83;;;;;;;;;;4956390;28;20208;-86
2024/01/31 02:07:43;;;;;;;1.70;1.33;;;;;;;;;;4956053;28;20205;-85
2024/01/31 02:10:11;;;;;;;0.60;0.60;;;;;;;;;;4973275;28;20197;-85
2024/01/31 02:12:40;;;;;;;0.70;0.70;;;;;;;;;;4973064;28;20260;-85
2024/01/31 02:15:11;;;;;;;3.80;0.87;;;;;;;;;;4955694;28;20198;-86
2024/01/31 02:17:39;;;;;;;0.90;0.90;;;;;;;;;;4955675;28;20363;-85
2024/01/31 02:20:15;;;;;;;0.80;0.80;;;;;;;;;;4972797;28;20199;-85
2024/01/31 02:22:47;;;;;;;0.80;0.80;;;;;;;;;;4955767;28;20299;-85
2024/01/31 02:25:16;;;;;;;0.80;0.80;;;;;;;;;;4972450;28;20204;-85
2024/01/31 02:27:45;;;;;;;1.40;1.07;;;;;;;;;;4955315;28;20194;-85
2024/01/31 02:30:15;;;;;;;0.77;0.77;;;;;;;;;;4955699;28;20194;-86
2024/01/31 02:32:45;;;;;;;1.33;1.23;;;;;;;;;;4955638;28;20291;-86
2024/01/31 02:35:14;;;;;;;0.80;0.80;;;;;;;;;;4955310;28;20201;-85
2024/01/31 02:37:47;;;;;;;2.00;1.30;;;;;;;;;;4954965;28;20207;-86
2024/01/31 02:40:15;;;;;;;0.83;0.83;;;;;;;;;;4972834;28;20205;-86
2024/01/31 02:42:47;;;;;;;2.20;1.20;;;;;;;;;;4956074;28;20200;-86
2024/01/31 02:45:16;;;;;;;0.70;0.70;;;;;;;;;;4955781;28;20197;-86
2024/01/31 02:47:44;;;;;;;1.00;0.90;;;;;;;;;;4971980;28;20222;-86
2024/01/31 02:50:13;;;;;;;0.70;0.70;;;;;;;;;;4955761;28;20196;-86
2024/01/31 02:52:42;;;;;;;4.53;2.33;;;;;;;;;;4956008;28;20308;-86
2024/01/31 02:55:12;;;;;;;0.90;0.90;;;;;;;;;;4972567;28;20268;-86
2024/01/31 02:57:40;;;;;;;0.80;0.80;;;;;;;;;;4955196;28;20193;-86
2024/01/31 03:00:11;;;;;;;1.67;1.60;;;;;;;;;;4955283;28;20460;-86
2024/01/31 03:02:42;;;;;;;0.60;0.60;;;;;;;;;;4972702;28;20202;-86
2024/01/31 03:05:11;;;;;;;0.73;0.73;;;;;;;;;;4955863;28;20192;-86
2024/01/31 03:07:40;;;;;;;3.47;1.20;;;;;;;;;;4972669;28;20231;-86
2024/01/31 03:10:09;;;;;;;1.50;0.73;;;;;;;;;;4972030;28;20296;-86
2024/01/31 03:12:40;;;;;;;0.90;0.90;;;;;;;;;;4972540;28;20217;-86
2024/01/31 03:15:08;;;;;;;0.70;0.70;;;;;;;;;;4973501;28;20211;-86
2024/01/31 03:17:37;;;;;;;0.77;0.77;;;;;;;;;;4958463;28;20209;-86
2024/01/31 03:20:06;;;;;;;0.77;0.77;;;;;;;;;;4958579;28;20275;-86
2024/01/31 03:22:36;;;;;;;0.60;0.60;;;;;;;;;;4959477;28;20219;-86
2024/01/31 03:25:05;;;;;;;0.97;0.97;;;;;;;;;;4976392;28;20201;-86
2024/01/31 03:27:34;;;;;;;0.80;0.80;;;;;;;;;;4975834;28;20201;-86
2024/01/31 03:30:04;;;;;;;0.80;0.80;;;;;;;;;;4957916;28;20207;-86
2024/01/31 03:32:37;;;;;;;3.00;0.77;;;;;;;;;;4959056;28;20216;-85
2024/01/31 03:35:06;;;;;;;0.70;0.70;;;;;;;;;;4958839;28;20292;-86
2024/01/31 03:37:35;;;;;;;2.67;1.30;;;;;;;;;;4975808;28;20193;-86
2024/01/31 03:40:05;;;;;;;1.30;1.20;;;;;;;;;;4958256;28;20212;-86
2024/01/31 03:42:34;;;;;;;0.93;0.93;;;;;;;;;;4958457;28;20204;-86
2024/01/31 03:45:04;;;;;;;1.00;1.00;;;;;;;;;;4975728;28;20201;-86
2024/01/31 03:47:35;;;;;;;0.70;0.70;;;;;;;;;;4976080;28;20197;-85
2024/01/31 03:50:04;;;;;;;0.70;0.70;;;;;;;;;;4957943;28;20219;-86
2024/01/31 03:52:37;;;;;;;0.80;0.80;;;;;;;;;;4958034;28;20214;-85
2024/01/31 03:55:06;;;;;;;0.60;0.60;;;;;;;;;;4958817;28;20204;-86
2024/01/31 03:57:35;;;;;;;1.43;1.23;;;;;;;;;;4958799;28;20201;-86
2024/01/31 04:00:08;;;;;;;0.73;0.73;;;;;;;;;;4957679;28;20213;-86
2024/01/31 04:02:37;;;;;;;1.83;1.77;;;;;;;;;;4958291;28;20193;-85
2024/01/31 04:05:06;;;;;;;0.60;0.60;;;;;;;;;;4958072;28;20233;-86
2024/01/31 04:07:37;;;;;;;0.60;0.60;;;;;;;;;;4975402;28;20199;-86
2024/01/31 04:10:09;;;;;;;1.47;1.37;;;;;;;;;;4974905;28;20196;-86
2024/01/31 04:12:37;;;;;;;1.10;1.10;;;;;;;;;;4957308;28;20221;-86
2024/01/31 04:15:08;;;;;;;2.03;1.93;;;;;;;;;;4957550;28;20206;-86
2024/01/31 04:17:36;;;;;;;0.70;0.70;;;;;;;;;;4958381;28;20256;-86
2024/01/31 04:20:06;;;;;;;0.67;0.67;;;;;;;;;;4957543;28;20276;-86
2024/01/31 04:22:35;;;;;;;0.70;0.70;;;;;;;;;;4957722;28;20194;-86
2024/01/31 04:25:03;;;;;;;0.70;0.70;;;;;;;;;;4975652;28;20255;-87
2024/01/31 04:27:32;;;;;;;0.70;0.70;;;;;;;;;;4975714;28;20200;-87
2024/01/31 04:30:01;;;;;;;0.70;0.70;;;;;;;;;;4958504;28;20295;-87
2024/01/31 04:32:30;;;;;;;0.87;0.87;;;;;;;;;;4974812;28;20217;-87
2024/01/31 04:34:59;;;;;;;1.00;1.00;;;;;;;;;;4958444;28;20296;-87
2024/01/31 04:37:28;;;;;;;2.13;1.97;;;;;;;;;;4958827;28;20228;-87
2024/01/31 04:39:56;;;;;;;0.80;0.80;;;;;;;;;;4954902;29;20244;-87
2024/01/31 04:42:25;;;;;;;0.70;0.70;;;;;;;;;;4970633;28;20360;-87
2024/01/31 04:44:53;;;;;;;1.63;1.47;;;;;;;;;;4956065;29;20193;-87
2024/01/31 04:47:25;;;;;;;1.40;1.00;;;;;;;;;;4956387;29;20226;-87
2024/01/31 04:49:56;;;;;;;3.77;2.77;;;;;;;;;;4954398;29;20204;-86
2024/01/31 04:52:25;;;;;;;5.53;2.63;;;;;;;;;;4953858;29;20279;-86
2024/01/31 04:54:53;;;;;;;3.17;2.30;;;;;;;;;;4953490;29;20256;-86
2024/01/31 04:57:22;;;;;;;2.67;1.83;;;;;;;;;;4954211;29;20209;-86
2024/01/31 04:59:50;;;;;;;3.47;2.60;;;;;;;;;;4954016;29;20298;-86
2024/01/31 05:02:21;;;;;;;4.27;2.10;;;;;;;;;;4953716;29;20276;-86
2024/01/31 05:04:52;;;;;;;2.57;2.37;;;;;;;;;;4953385;29;20193;-85
2024/01/31 05:07:22;;;;;;;1.90;1.80;;;;;;;;;;4954147;29;20300;-86
2024/01/31 05:09:50;;;;;;;1.17;1.17;;;;;;;;;;4954059;29;20209;-86
2024/01/31 05:12:19;;;;;;;0.77;0.77;;;;;;;;;;4955041;29;20194;-86
2024/01/31 05:14:47;;;;;;;1.77;1.50;;;;;;;;;;4953552;29;20221;-86
2024/01/31 05:17:19;;;;;;;2.60;2.40;;;;;;;;;;4953758;29;20208;-87
2024/01/31 05:19:50;;;;;;;1.67;1.57;;;;;;;;;;4954176;29;20198;-87
2024/01/31 05:22:19;;;;;;;8.80;3.67;;;;;;;;;;4954859;29;20205;-87
2024/01/31 05:24:49;;;;;;;1.40;1.30;;;;;;;;;;4954882;29;20190;-86
2024/01/31 05:27:17;;;;;;;1.83;1.67;;;;;;;;;;4952892;29;20291;-86
2024/01/31 05:29:46;;;;;;;2.87;2.53;;;;;;;;;;4953621;29;20300;-86
2024/01/31 05:32:14;;;;;;;2.53;2.33;;;;;;;;;;4953592;29;20319;-86
2024/01/31 05:34:44;;;;;;;1.80;1.70;;;;;;;;;;4953308;29;20225;-85
2024/01/31 05:37:14;;;;;;;1.83;1.73;;;;;;;;;;4953147;28;20273;-86
2024/01/31 05:39:42;;;;;;;2.17;2.07;;;;;;;;;;4970539;28;20240;-86
2024/01/31 05:42:12;;;;;;;2.73;2.53;;;;;;;;;;4973908;28;20201;-85
2024/01/31 05:44:40;;;;;;;1.27;1.27;;;;;;;;;;4956293;28;20201;-85
2024/01/31 05:47:09;;;;;;;0.93;0.93;;;;;;;;;;4973332;28;20220;-85
2024/01/31 05:49:37;;;;;;;1.07;1.07;;;;;;;;;;4956194;28;20204;-85
2024/01/31 05:52:06;;;;;;;2.67;1.97;;;;;;;;;;4956634;28;20200;-86
2024/01/31 05:54:35;;;;;;;1.63;1.53;;;;;;;;;;4973767;28;20236;-86
2024/01/31 05:57:03;;;;;;;1.40;1.30;;;;;;;;;;4972999;28;20209;-85
2024/01/31 05:59:33;;;;;;;1.73;1.63;;;;;;;;;;4956235;28;20236;-86
2024/01/31 06:02:02;;;;;;;3.40;3.10;;;;;;;;;;4973813;28;20288;-85
2024/01/31 06:04:30;;;;;;;1.57;1.47;;;;;;;;;;4956728;28;20265;-85
2024/01/31 06:06:59;;;;;;;2.47;2.07;;;;;;;;;;4956019;28;20299;-86
2024/01/31 06:09:28;;;;;;;2.37;2.13;;;;;;;;;;4972717;28;20197;-85
2024/01/31 06:11:56;;;;;;;2.80;2.40;;;;;;;;;;4972399;28;20205;-85
2024/01/31 06:14:25;;;;;;;2.70;2.23;;;;;;;;;;4973315;28;20224;-86
2024/01/31 06:16:55;;;;;;;2.83;1.57;;;;;;;;;;4955970;28;20201;-86
2024/01/31 06:19:24;;;;;;;1.43;1.33;;;;;;;;;;4955730;28;20201;-85
2024/01/31 06:21:53;;;;;;;2.60;2.37;;;;;;;;;;4956518;28;20337;-86
2024/01/31 06:24:21;;;;;;;1.73;1.63;;;;;;;;;;4956514;28;20236;-85
2024/01/31 06:26:51;;;;;;;1.00;1.00;;;;;;;;;;4955942;28;20197;-85
2024/01/31 06:29:19;;;;;;;1.73;1.63;;;;;;;;;;4955644;28;20228;-85
2024/01/31 06:31:48;;;;;;;3.20;2.67;;;;;;;;;;4956348;28;20284;-85
2024/01/31 06:34:19;;;;;;;3.17;2.53;;;;;;;;;;4955725;28;20221;-86
2024/01/31 06:36:50;;;;;;;2.40;2.13;;;;;;;;;;4972799;28;20197;-86
2024/01/31 06:39:19;;;;;;;1.40;1.30;;;;;;;;;;4972139;28;20228;-86
2024/01/31 06:41:53;;;;;;;1.60;1.50;;;;;;;;;;4955728;28;20219;-86
2024/01/31 06:44:21;;;;;;;1.93;1.70;;;;;;;;;;4974360;28;20221;-86
2024/01/31 06:46:50;;;;;;;0.80;0.80;;;;;;;;;;4971960;28;20197;-86
2024/01/31 06:49:24;;;;;;;1.00;1.00;;;;;;;;;;4955167;28;20209;-86
2024/01/31 06:51:53;;;;;;;1.80;1.67;;;;;;;;;;4959431;28;20227;-85
2024/01/31 06:54:22;;;;;;;1.60;1.40;;;;;;;;;;4959402;28;20221;-85
2024/01/31 06:56:50;;;;;;;1.30;1.30;;;;;;;;;;4977416;28;20317;-85
2024/01/31 06:59:19;;;;;;;1.63;1.53;;;;;;;;;;4959487;28;20200;-85
2024/01/31 07:01:50;;;;;;;1.97;1.73;;;;;;;;;;4959106;28;20204;-85
2024/01/31 07:04:20;;;;;;;1.57;1.47;;;;;;;;;;4959700;28;20198;-85
2024/01/31 07:06:53;;;;;;;1.03;1.03;;;;;;;;;;4977126;28;20196;-85
2024/01/31 07:09:21;;;;;;;2.73;1.57;;;;;;;;;;4959483;28;20202;-86
2024/01/31 07:11:51;;;;;;;1.53;1.43;;;;;;;;;;4976491;28;20207;-86
2024/01/31 07:14:22;;;;;;;2.30;1.67;;;;;;;;;;4960041;28;20230;-85
2024/01/31 07:16:50;;;;;;;0.83;0.83;;;;;;;;;;4977241;28;20201;-86
2024/01/31 07:19:25;;;;;;;1.63;1.53;;;;;;;;;;4975273;28;20202;-85
2024/01/31 07:21:54;;;;;;;5.70;2.47;;;;;;;;;;4963051;28;20259;-85
2024/01/31 07:24:22;;;;;;;1.97;1.43;;;;;;;;;;4977184;28;20221;-85
2024/01/31 07:26:57;;;;;;;1.17;1.17;;;;;;;;;;4977400;28;20208;-86
2024/01/31 07:29:28;;;;;;;1.53;1.37;;;;;;;;;;4961533;28;20206;-85
2024/01/31 07:31:56;;;;;;;1.90;1.40;;;;;;;;;;4969105;28;20374;-85
2024/01/31 07:34:27;;;;;;;2.03;1.77;;;;;;;;;;4990878;28;20218;-85
2024/01/31 07:36:56;;;;;;;1.33;0.83;;;;;;;;;;4977312;28;20285;-86
2024/01/31 07:39:27;;;;;;;2.00;1.90;;;;;;;;;;4959670;28;20305;-85
2024/01/31 07:41:57;;;;;;;1.53;1.43;;;;;;;;;;4959827;28;20446;-85
2024/01/31 07:44:31;;;;;;;2.13;1.93;;;;;;;;;;4976230;28;20264;-86
2024/01/31 07:47:08;;;;;;;1.83;1.73;;;;;;;;;;4974133;28;20205;-85
2024/01/31 07:49:38;;;;;;;1.47;1.47;;;;;;;;;;4976781;28;20247;-86
2024/01/31 07:52:07;;;;;;;1.87;1.77;;;;;;;;;;4975623;28;20293;-86
2024/01/31 07:54:35;;;;;;;1.17;1.07;;;;;;;;;;4975194;28;20222;-86
2024/01/31 07:57:03;;;;;;;1.27;1.27;;;;;;;;;;4975690;28;20253;-86
2024/01/31 07:59:33;;;;;;;1.73;1.37;;;;;;;;;;4975583;28;20236;-85
2024/01/31 08:02:07;;;;;;;1.80;1.27;;;;;;;;;;4976665;28;20194;-85
2024/01/31 08:04:37;;;;;;;1.43;1.33;;;;;;;;;;4975726;28;20195;-85
2024/01/31 08:07:08;;;;;;;1.00;1.00;;;;;;;;;;4975794;28;20201;-85
2024/01/31 08:09:40;;;;;;;6.53;1.50;;;;;;;;;;4977290;28;20275;-85
2024/01/31 08:12:09;;;;;;;1.80;1.70;;;;;;;;;;4975414;28;20205;-87
2024/01/31 08:14:37;;;;;;;3.33;1.70;;;;;;;;;;4975828;28;20224;-85
2024/01/31 08:17:06;;;;;;;2.67;2.00;;;;;;;;;;4991544;28;20202;-85
2024/01/31 08:19:39;;;;;;;1.67;1.57;;;;;;;;;;4976495;28;20237;-86
2024/01/31 08:22:12;;;;;;;3.43;1.57;;;;;;;;;;4975910;28;20206;-86
2024/01/31 08:24:43;;;;;;;1.77;1.63;;;;;;;;;;4991535;28;20204;-85
2024/01/31 08:27:12;;;;;;;2.67;2.00;;;;;;;;;;4976828;28;20212;-85
2024/01/31 08:29:41;;;;;;;2.00;1.30;;;;;;;;;;4976083;28;20209;-85
2024/01/31 08:32:09;;;;;;;0.70;0.70;;;;;;;;;;4975380;28;20256;-85
2024/01/31 08:34:39;;;;;;;1.30;1.20;;;;;;;;;;4974699;28;20217;-85
2024/01/31 08:37:12;;;;;;;0.73;0.73;;;;;;;;;;4975167;28;20217;-86
2024/01/31 08:39:41;;;;;;;0.70;0.70;;;;;;;;;;4991828;28;20242;-84
2024/01/31 08:42:10;;;;;;;1.70;1.00;;;;;;;;;;4975830;28;20260;-85
2024/01/31 08:44:41;;;;;;;1.27;1.17;;;;;;;;;;4991139;28;20201;-86
2024/01/31 08:47:11;;;;;;;1.00;1.00;;;;;;;;;;4974604;28;20201;-86
2024/01/31 08:49:47;;;;;;;2.40;1.00;;;;;;;;;;4975457;28;20208;-86
2024/01/31 08:52:17;;;;;;;3.07;1.63;;;;;;;;;;4974947;28;20225;-86
2024/01/31 08:54:46;;;;;;;1.43;1.33;;;;;;;;;;4976470;28;20218;-86
2024/01/31 08:57:15;;;;;;;1.47;1.37;;;;;;;;;;4974688;28;20236;-85
2024/01/31 08:59:48;;;;;;;0.93;0.93;;;;;;;;;;4991350;28;20224;-85
2024/01/31 09:02:16;;;;;;;1.80;1.70;;;;;;;;;;4976026;28;20192;-85
2024/01/31 09:04:46;;;;;;;0.90;0.90;;;;;;;;;;4975325;28;20230;-86
2024/01/31 09:07:15;;;;;;;3.30;2.50;;;;;;;;;;4973972;28;20211;-85
2024/01/31 09:09:46;;;;;;;1.80;1.03;;;;;;;;;;4973431;28;20265;-86
2024/01/31 09:12:23;;;;;;;2.83;2.33;;;;;;;;;;4974462;28;20215;-85
2024/01/31 09:14:53;;;;;;;1.80;1.43;;;;;;;;;;4974323;28;20228;-85
2024/01/31 09:17:22;;;;;;;5.20;1.33;;;;;;;;;;4974819;28;20391;-86
2024/01/31 09:19:51;;;;;;;2.30;1.73;;;;;;;;;;4973890;28;20210;-84
2024/01/31 09:22:19;;;;;;;1.70;1.37;;;;;;;;;;4975190;28;20201;-86
2024/01/31 09:24:52;;;;;;;1.00;1.00;;;;;;;;;;4974959;28;20207;-86
2024/01/31 09:27:21;;;;;;;1.60;1.50;;;;;;;;;;4974827;28;20270;-86
2024/01/31 09:29:53;;;;;;;3.47;1.80;;;;;;;;;;4975263;28;20201;-86
2024/01/31 09:32:22;;;;;;;2.77;1.83;;;;;;;;;;4976657;28;20229;-85
2024/01/31 09:34:54;;;;;;;1.93;1.70;;;;;;;;;;4979560;28;20253;-85
2024/01/31 09:37:25;;;;;;;1.73;1.63;;;;;;;;;;4976507;28;20225;-85
2024/01/31 09:40:08;;;;;;;2.00;1.20;;;;;;;;;;4976054;28;20268;-85
2024/01/31 09:42:41;;;;;;;1.17;1.17;;;;;;;;;;4977108;28;20202;-86
2024/01/31 09:45:12;;;;;;;3.93;2.97;;;;;;;;;;4977241;28;20204;-85
2024/01/31 09:47:44;;;;;;;1.10;1.10;;;;;;;;;;4977561;28;20201;-85
2024/01/31 09:50:15;;;;;;;2.03;1.33;;;;;;;;;;4976397;28;20212;-85
2024/01/31 09:52:46;;;;;;;1.10;1.10;;;;;;;;;;4977200;28;20209;-86
2024/01/31 09:55:18;;;;;;;1.33;1.23;;;;;;;;;;4977160;28;20292;-86
2024/01/31 09:57:48;;;;;;;2.60;2.50;;;;;;;;;;4977152;28;20216;-85
2024/01/31 10:00:18;;;;;;;0.80;0.80;;;;;;;;;;4975637;28;20206;-85
2024/01/31 10:02:52;;;;;;;3.40;2.63;;;;;;;;;;4976470;28;20199;-86
2024/01/31 10:05:21;;;;;;;3.80;1.90;;;;;;;;;;4976979;28;20356;-86
2024/01/31 10:07:50;;;;;;;3.03;1.83;;;;;;;;;;4977347;28;20250;-85
2024/01/31 10:10:23;;;;;;;2.23;1.50;;;;;;;;;;4977237;28;20221;-86
2024/01/31 10:12:58;;;;;;;4.40;4.10;;;;;;;;;;4976098;28;20304;-86
2024/01/31 10:15:31;;;;;;;2.53;2.23;;;;;;;;;;4976003;28;20216;-86
2024/01/31 10:18:06;;;;;;;2.33;2.13;;;;;;;;;;4973068;28;20219;-86
2024/01/31 10:20:35;;;;;;;2.30;2.10;;;;;;;;;;4989412;28;20268;-87
2024/01/31 10:23:06;;;;;;;2.20;2.00;;;;;;;;;;4972475;28;20209;-85
2024/01/31 10:25:37;;;;;;;5.17;2.80;;;;;;;;;;4973102;28;20190;-86
2024/01/31 10:28:06;;;;;;;1.67;1.57;;;;;;;;;;4974451;28;20194;-86
2024/01/31 10:30:41;;;;;;;3.83;1.73;;;;;;;;;;4972935;28;20209;-86
2024/01/31 10:33:10;;;;;;;5.10;2.80;;;;;;;;;;4973069;28;20225;-86
2024/01/31 10:35:39;;;;;;;10.57;2.77;;;;;;;;;;4974478;28;20293;-86
2024/01/31 10:38:28;;;;;;;2.83;2.37;;;;;;;;;;4973328;28;20214;-85
2024/01/31 10:41:00;;;;;;;5.67;4.60;;;;;;;;;;4973700;28;20237;-85
2024/01/31 10:43:31;;;;;;;5.23;3.27;;;;;;;;;;4974293;28;20206;-86
2024/01/31 10:46:00;;;;;;;4.33;3.57;;;;;;;;;;4974181;28;20209;-85
2024/01/31 10:48:28;;;;;;;3.60;2.80;;;;;;;;;;4974814;28;20210;-86
2024/01/31 10:51:00;;;;;;;5.93;3.97;;;;;;;;;;4973376;28;20202;-86
2024/01/31 10:53:30;;;;;;;7.03;5.10;;;;;;;;;;4973372;28;20407;-86
2024/01/31 10:56:01;;;;;;;6.80;4.13;;;;;;;;;;4989708;28;20222;-85
2024/01/31 10:58:33;;;;;;;14.47;5.40;;;;;;;;;;4972993;28;20297;-86
2024/01/31 11:01:12;;;;;;;7.13;6.23;;;;;;;;;;4974744;28;20201;-86
2024/01/31 11:03:45;;;;;;;6.23;5.00;;;;;;;;;;4972779;28;20209;-86
2024/01/31 11:06:17;;;;;;;7.97;6.10;;;;;;;;;;4972634;28;20201;-86
2024/01/31 11:08:49;;;;;;;6.53;5.20;;;;;;;;;;4973149;28;20209;-86
2024/01/31 11:11:21;;;;;;;6.30;4.57;;;;;;;;;;4973145;28;20208;-86
2024/01/31 11:13:56;;;;;;;8.70;6.33;;;;;;;;;;4973633;28;20209;-86
2024/01/31 11:16:25;;;;;;;7.80;6.13;;;;;;;;;;4973286;28;20225;-86
2024/01/31 11:18:54;;;;;;;5.67;5.03;;;;;;;;;;4972823;28;20205;-85
2024/01/31 11:21:25;;;;;;;8.43;6.60;;;;;;;;;;4974112;28;20254;-85
2024/01/31 11:23:54;;;;;;;5.23;3.77;;;;;;;;;;4972912;28;20209;-85
2024/01/31 11:26:33;;;;;;;5.10;3.80;;;;;;;;;;4973940;28;20195;-86
2024/01/31 11:29:03;;;;;;;8.63;6.20;;;;;;;;;;4973242;28;20264;-85
2024/01/31 11:31:34;;;;;;;4.07;3.60;;;;;;;;;;4972495;28;20203;-85
2024/01/31 11:34:03;;;;;;;8.10;7.27;;;;;;;;;;4972765;28;20201;-86
2024/01/31 11:36:34;;;;;;;5.40;3.90;;;;;;;;;;4973785;28;20271;-86
2024/01/31 11:39:05;;;;;;;7.77;5.87;;;;;;;;;;4975637;28;20289;-86
2024/01/31 11:41:44;;;;;;;4.20;3.80;;;;;;;;;;4976628;28;20219;-85
2024/01/31 11:44:16;;;;;;;2.80;2.50;;;;;;;;;;4976166;28;20201;-86
2024/01/31 11:46:50;;;;;;;2.27;2.07;;;;;;;;;;4991328;28;20256;-85
2024/01/31 11:49:22;;;;;;;5.03;3.63;;;;;;;;;;4975294;28;20230;-85
2024/01/31 11:51:58;;;;;;;5.30;4.80;;;;;;;;;;4975771;28;20260;-86
2024/01/31 11:54:36;;;;;;;3.33;3.03;;;;;;;;;;4975425;28;20197;-86
2024/01/31 11:57:07;;;;;;;7.53;3.97;;;;;;;;;;4976117;28;20252;-86
2024/01/31 11:59:38;;;;;;;4.63;3.17;;;;;;;;;;4975225;28;20282;-86
2024/01/31 12:02:10;;;;;;;3.70;3.23;;;;;;;;;;4978130;28;20207;-86
2024/01/31 12:04:40;;;;;;;4.30;3.90;;;;;;;;;;4995168;28;20206;-86
2024/01/31 12:07:13;;;;;;;3.97;3.53;;;;;;;;;;4978482;28;20195;-86
2024/01/31 12:09:45;;;;;;;4.60;3.03;;;;;;;;;;4978713;28;20213;-86
2024/01/31 12:12:20;;;;;;;3.87;3.33;;;;;;;;;;4979356;28;20206;-86
2024/01/31 12:14:55;;;;;;;8.37;4.20;;;;;;;;;;4978266;28;20207;-86
2024/01/31 12:17:25;;;;;;;5.70;3.80;;;;;;;;;;4978475;28;20215;-86
2024/01/31 12:20:05;;;;;;;5.30;3.30;;;;;;;;;;4977999;28;20238;-86
2024/01/31 12:22:38;;;;;;;8.70;3.40;;;;;;;;;;4978060;28;20214;-85
2024/01/31 12:25:14;;;;;;;4.00;3.63;;;;;;;;;;4979619;28;20198;-84
2024/01/31 12:27:50;;;;;;;5.07;3.67;;;;;;;;;;4977702;28;20207;-84
2024/01/31 12:30:25;;;;;;;4.33;3.20;;;;;;;;;;4979027;28;20205;-85
2024/01/31 12:32:54;;;;;;;5.07;4.37;;;;;;;;;;4978713;28;20253;-84
2024/01/31 12:35:23;;;;;;;3.87;3.23;;;;;;;;;;4977897;28;20234;-84
2024/01/31 12:37:54;;;;;;;6.87;3.37;;;;;;;;;;4978778;28;20265;-85
2024/01/31 12:40:25;;;;;;;3.70;2.83;;;;;;;;;;4978813;28;20358;-84
2024/01/31 12:42:56;;;;;;;2.90;2.37;;;;;;;;;;4979497;28;20229;-86
2024/01/31 12:45:28;;;;;;;7.90;4.60;;;;;;;;;;4978661;28;20209;-85
2024/01/31 12:47:59;;;;;;;5.90;4.33;;;;;;;;;;4977337;28;20289;-85
2024/01/31 12:50:28;;;;;;;4.67;2.50;;;;;;;;;;4978222;28;20230;-86
2024/01/31 12:52:56;;;;;;;6.20;2.70;;;;;;;;;;4978188;28;20225;-85
2024/01/31 12:55:28;;;;;;;3.37;2.47;;;;;;;;;;4975534;28;20214;-86
2024/01/31 12:57:58;;;;;;;5.17;2.90;;;;;;;;;;4973959;28;20230;-85
2024/01/31 13:00:27;;;;;;;5.80;2.20;;;;;;;;;;4974959;28;20213;-86
2024/01/31 13:02:56;;;;;;;4.13;2.20;;;;;;;;;;4974557;28;20297;-85
2024/01/31 13:05:26;;;;;;;4.07;2.13;;;;;;;;;;4973938;28;20202;-86
2024/01/31 13:07:59;;;;;;;2.73;2.47;;;;;;;;;;4974583;28;20200;-86
2024/01/31 13:10:28;;;;;;;2.77;2.13;;;;;;;;;;4976065;28;20190;-85
2024/01/31 13:13:01;;;;;;;2.40;1.87;;;;;;;;;;4975284;28;20272;-85
2024/01/31 13:15:30;;;;;;;6.10;2.70;;;;;;;;;;4976977;28;20235;-85
2024/01/31 13:18:02;;;;;;;4.20;2.03;;;;;;;;;;4977234;28;20212;-85
2024/01/31 13:20:33;;;;;;;4.57;2.40;;;;;;;;;;4975274;28;20199;-85
2024/01/31 13:23:07;;;;;;;4.77;2.07;;;;;;;;;;4975099;28;20230;-85
2024/01/31 13:25:40;;;;;;;5.57;2.73;;;;;;;;;;4975148;28;20215;-85
2024/01/31 13:28:10;;;;;;;6.00;3.00;;;;;;;;;;4975277;28;20205;-85
2024/01/31 13:30:43;;;;;;;3.97;2.13;;;;;;;;;;4974385;28;20226;-86
2024/01/31 13:33:11;;;;;;;4.10;2.50;;;;;;;;;;4974403;28;20250;-86
2024/01/31 13:35:41;;;;;;;5.10;2.90;;;;;;;;;;4974960;28;20207;-86
2024/01/31 13:38:13;;;;;;;3.37;1.63;;;;;;;;;;4975180;28;20213;-86
2024/01/31 13:40:43;;;;;;;8.50;1.90;;;;;;;;;;4974047;28;20237;-84
2024/01/31 13:43:13;;;;;;;4.40;2.87;;;;;;;;;;4974470;28;20207;-86
2024/01/31 13:45:42;;;;;;;4.07;2.27;;;;;;;;;;4974688;28;20241;-87
2024/01/31 13:48:11;;;;;;;2.53;1.73;;;;;;;;;;4974519;28;20265;-85
2024/01/31 13:50:42;;;;;;;3.23;2.07;;;;;;;;;;4974261;28;20260;-85
2024/01/31 13:53:11;;;;;;;2.80;2.03;;;;;;;;;;4973970;28;20202;-86
2024/01/31 13:55:42;;;;;;;5.33;2.53;;;;;;;;;;4974248;28;20202;-85
2024/01/31 13:58:11;;;;;;;2.00;1.60;;;;;;;;;;4974412;28;20221;-84
2024/01/31 14:00:44;;;;;;;3.73;1.60;;;;;;;;;;4989747;28;20215;-85
2024/01/31 14:03:12;;;;;;;6.97;2.30;;;;;;;;;;4974692;28;20202;-86
2024/01/31 14:05:49;;;;;;;2.33;1.73;;;;;;;;;;4974308;28;20218;-85
2024/01/31 14:08:19;;;;;;;3.00;2.10;;;;;;;;;;4973322;28;20205;-85
2024/01/31 14:10:49;;;;;;;2.73;1.90;;;;;;;;;;4973001;28;20202;-85
2024/01/31 14:13:18;;;;;;;3.50;1.67;;;;;;;;;;4974263;28;20205;-85
2024/01/31 14:15:48;;;;;;;2.23;1.50;;;;;;;;;;4973427;28;20214;-86
2024/01/31 14:18:17;;;;;;;3.73;2.47;;;;;;;;;;4974012;28;20227;-85
2024/01/31 14:20:47;;;;;;;6.03;2.30;;;;;;;;;;4989582;28;20225;-85
2024/01/31 14:23:19;;;;;;;1.97;1.50;;;;;;;;;;4973050;28;20228;-85
2024/01/31 14:26:08;;;;;;;5.53;3.17;;;;;;;;;;4972547;28;20206;-85
2024/01/31 14:28:39;;;;;;;2.50;2.30;;;;;;;;;;4973701;28;20463;-85
2024/01/31 14:31:12;;;;;;;4.40;2.30;;;;;;;;;;4973722;28;20402;-85
2024/01/31 14:33:41;;;;;;;3.27;1.90;;;;;;;;;;4973962;28;20254;-84
2024/01/31 14:36:10;;;;;;;3.10;1.90;;;;;;;;;;4973357;28;20300;-85
2024/01/31 14:38:40;;;;;;;7.23;3.33;;;;;;;;;;4973192;28;20245;-85
2024/01/31 14:41:09;;;;;;;5.47;2.43;;;;;;;;;;4988984;28;20246;-85
2024/01/31 14:43:38;;;;;;;1.70;1.47;;;;;;;;;;4974324;28;20193;-85
2024/01/31 14:46:07;;;;;;;3.20;1.80;;;;;;;;;;4974349;28;20214;-85
2024/01/31 14:48:39;;;;;;;2.30;1.57;;;;;;;;;;4973582;28;20204;-86
2024/01/31 14:51:08;;;;;;;4.63;1.97;;;;;;;;;;4974739;28;20201;-86
2024/01/31 14:53:47;;;;;;;6.03;3.27;;;;;;;;;;4990028;28;20212;-85
2024/01/31 14:56:16;;;;;;;1.80;1.60;;;;;;;;;;4973021;28;20203;-85
2024/01/31 14:58:45;;;;;;;4.93;3.53;;;;;;;;;;4973780;28;20236;-85
2024/01/31 15:01:14;;;;;;;2.83;2.23;;;;;;;;;;4973318;28;20201;-85